createdAt,value
2023-03-19T00:01:06.495Z,15.47
2023-03-19T00:03:35.281Z,15.84
2023-03-19T00:06:05.561Z,15.59
2023-03-19T00:08:34.003Z,14.88
2023-03-19T00:11:08.764Z,15.18
2023-03-19T00:13:37.582Z,15.60
2023-03-19T00:16:07.020Z,15.69
2023-03-19T00:18:35.539Z,15.70
2023-03-19T00:21:05.827Z,15.51
2023-03-19T00:23:34.138Z,15.56
2023-03-19T00:26:02.447Z,15.47
2023-03-19T00:28:31.401Z,15.80
2023-03-19T00:31:07.369Z,15.16
2023-03-19T00:33:35.618Z,15.31
2023-03-19T00:36:07.117Z,15.10
2023-03-19T00:38:36.699Z,15.45
2023-03-19T00:41:06.512Z,15.04
2023-03-19T00:43:35.116Z,15.50
2023-03-19T00:46:03.647Z,15.80
2023-03-19T00:48:32.150Z,15.53
2023-03-19T00:51:06.108Z,15.83
2023-03-19T00:53:34.823Z,15.69
2023-03-19T00:56:03.027Z,15.50
2023-03-19T00:58:31.306Z,15.36
2023-03-19T01:00:59.728Z,15.51
2023-03-19T01:03:28.103Z,15.25
2023-03-19T01:05:56.338Z,15.23
2023-03-19T01:08:26.226Z,15.12
2023-03-19T01:10:54.752Z,15.12
2023-03-19T01:13:23.111Z,15.31
2023-03-19T01:15:54.567Z,15.47
2023-03-19T01:18:23.141Z,15.88
2023-03-19T01:20:51.600Z,15.71
2023-03-19T01:23:20.038Z,15.65
2023-03-19T01:25:49.746Z,15.60
2023-03-19T01:28:18.286Z,15.42
2023-03-19T01:30:46.712Z,15.84
2023-03-19T01:33:15.549Z,15.80
2023-03-19T01:35:46.332Z,15.51
2023-03-19T01:38:14.710Z,15.67
2023-03-19T01:40:47.596Z,15.46
2023-03-19T01:43:23.755Z,15.38
2023-03-19T01:45:57.293Z,15.39
2023-03-19T01:48:34.201Z,15.57
2023-03-19T01:51:03.152Z,15.49
2023-03-19T01:53:35.040Z,15.63
2023-03-19T01:56:11.538Z,15.39
2023-03-19T01:58:43.275Z,15.14
2023-03-19T02:01:12.049Z,15.59
2023-03-19T02:03:41.438Z,15.77
2023-03-19T02:06:12.309Z,15.79
2023-03-19T02:08:42.008Z,15.59
2023-03-19T02:11:10.445Z,15.16
2023-03-19T02:13:39.064Z,15.15
2023-03-19T02:16:09.994Z,15.31
2023-03-19T02:18:38.579Z,15.57
2023-03-19T02:21:10.262Z,15.33
2023-03-19T02:23:46.814Z,15.30
2023-03-19T02:26:18.082Z,15.12
2023-03-19T02:28:49.816Z,15.36
2023-03-19T02:31:20.674Z,15.15
2023-03-19T02:34:00.637Z,14.92
2023-03-19T02:36:34.774Z,15.12
2023-03-19T02:39:05.449Z,14.98
2023-03-19T02:41:38.461Z,15.34
2023-03-19T02:44:07.595Z,15.44
2023-03-19T02:46:36.186Z,15.31
2023-03-19T02:49:05.520Z,15.52
2023-03-19T02:51:34.401Z,14.95
2023-03-19T02:54:02.808Z,15.61
2023-03-19T02:56:31.575Z,15.61
2023-03-19T02:59:01.500Z,15.25
2023-03-19T03:01:30.192Z,15.26
2023-03-19T03:03:58.637Z,15.50
2023-03-19T03:06:26.938Z,15.49
2023-03-19T03:08:55.639Z,15.54
2023-03-19T03:11:24.068Z,15.42
2023-03-19T03:13:53.662Z,15.61
2023-03-19T03:16:23.412Z,15.44
2023-03-19T03:18:51.930Z,15.46
2023-03-19T03:21:21.716Z,15.43
2023-03-19T03:23:50.042Z,15.43
2023-03-19T03:26:18.380Z,15.27
2023-03-19T03:28:46.863Z,15.29
2023-03-19T03:31:15.739Z,14.99
2023-03-19T03:33:45.872Z,15.12
2023-03-19T03:36:14.471Z,14.79
2023-03-19T03:38:42.774Z,14.80
2023-03-19T03:41:11.147Z,14.35
2023-03-19T03:43:39.584Z,14.44
2023-03-19T03:46:08.785Z,14.52
2023-03-19T03:48:37.378Z,14.53
2023-03-19T03:51:07.813Z,14.45
2023-03-19T03:53:36.102Z,14.20
2023-03-19T03:56:04.571Z,14.22
2023-03-19T03:58:33.241Z,13.75
2023-03-19T04:01:01.531Z,14.07
2023-03-19T04:03:29.996Z,14.05
2023-03-19T04:05:58.372Z,14.20
2023-03-19T04:08:28.303Z,14.09
2023-03-19T04:10:56.600Z,14.14
2023-03-19T04:13:25.489Z,13.95
2023-03-19T04:15:54.592Z,14.02
2023-03-19T04:18:23.007Z,14.16
2023-03-19T04:20:51.734Z,14.14
2023-03-19T04:23:19.988Z,14.02
2023-03-19T04:25:49.903Z,14.06
2023-03-19T04:28:18.237Z,14.05
2023-03-19T04:30:46.615Z,14.07
2023-03-19T04:33:14.943Z,13.98
2023-03-19T04:35:43.390Z,13.89
2023-03-19T04:38:11.813Z,13.80
2023-03-19T04:40:40.110Z,13.84
2023-03-19T04:43:09.860Z,13.45
2023-03-19T04:45:38.186Z,13.70
2023-03-19T04:48:07.082Z,13.71
2023-03-19T04:50:35.860Z,13.25
2023-03-19T04:53:04.276Z,13.07
2023-03-19T04:55:32.758Z,13.41
2023-03-19T04:58:01.542Z,13.45
2023-03-19T05:00:32.220Z,13.08
2023-03-19T05:03:00.866Z,13.36
2023-03-19T05:05:29.297Z,13.45
2023-03-19T05:07:58.509Z,13.43
2023-03-19T05:10:26.829Z,13.50
2023-03-19T05:12:55.104Z,13.41
2023-03-19T05:15:23.837Z,13.40
2023-03-19T05:17:53.664Z,13.36
2023-03-19T05:20:22.214Z,13.43
2023-03-19T05:22:50.643Z,13.47
2023-03-19T05:25:19.324Z,13.25
2023-03-19T05:27:47.892Z,13.40
2023-03-19T05:30:18.196Z,13.06
2023-03-19T05:32:47.184Z,12.78
2023-03-19T05:35:17.483Z,13.17
2023-03-19T05:37:46.114Z,12.94
2023-03-19T05:40:14.935Z,13.21
2023-03-19T05:42:43.539Z,13.55
2023-03-19T05:45:12.850Z,13.37
2023-03-19T05:47:41.282Z,13.05
2023-03-19T05:50:11.830Z,12.91
2023-03-19T05:52:42.213Z,13.13
2023-03-19T05:55:11.178Z,13.33
2023-03-19T05:57:39.711Z,13.52
2023-03-19T06:00:10.463Z,13.20
2023-03-19T06:02:39.566Z,13.15
2023-03-19T06:05:09.244Z,13.57
2023-03-19T06:07:39.280Z,13.37
2023-03-19T06:10:10.975Z,13.40
2023-03-19T06:12:39.925Z,13.33
2023-03-19T06:15:10.526Z,13.04
2023-03-19T06:17:39.332Z,12.47
2023-03-19T06:20:08.441Z,12.91
2023-03-19T06:22:36.961Z,13.19
2023-03-19T06:25:06.819Z,13.45
2023-03-19T06:27:36.722Z,13.59
2023-03-19T06:30:06.348Z,13.61
2023-03-19T06:32:35.066Z,13.29
2023-03-19T06:35:03.587Z,13.33
2023-03-19T06:37:33.172Z,13.38
2023-03-19T06:40:01.867Z,13.22
2023-03-19T06:42:31.357Z,13.20
2023-03-19T06:45:01.751Z,13.14
2023-03-19T06:47:30.274Z,13.26
2023-03-19T06:49:59.746Z,13.43
2023-03-19T06:52:28.473Z,13.26
2023-03-19T06:54:56.866Z,13.70
2023-03-19T06:57:25.658Z,13.37
2023-03-19T06:59:54.175Z,13.29
2023-03-19T07:02:24.484Z,13.50
2023-03-19T07:04:52.933Z,12.99
2023-03-19T07:07:22.286Z,13.62
2023-03-19T07:09:53.307Z,13.72
2023-03-19T07:12:21.754Z,13.27
2023-03-19T07:14:50.039Z,13.19
2023-03-19T07:17:19.580Z,13.45
2023-03-19T07:19:49.477Z,13.18
2023-03-19T07:22:18.036Z,13.13
2023-03-19T07:24:46.531Z,12.89
2023-03-19T07:27:15.154Z,13.02
2023-03-19T07:29:43.433Z,13.16
2023-03-19T07:32:13.487Z,13.37
2023-03-19T07:34:42.431Z,13.55
2023-03-19T07:37:13.045Z,13.58
2023-03-19T07:39:41.573Z,13.79
2023-03-19T07:42:10.256Z,13.04
2023-03-19T07:44:38.585Z,13.54
2023-03-19T07:47:16.052Z,13.56
2023-03-19T07:49:51.108Z,13.72
2023-03-19T07:52:22.283Z,13.92
2023-03-19T07:54:52.418Z,13.61
2023-03-19T07:57:21.043Z,13.93
2023-03-19T07:59:49.448Z,13.78
2023-03-19T08:02:22.698Z,13.83
2023-03-19T08:04:56.684Z,13.98
2023-03-19T08:07:27.511Z,13.29
2023-03-19T08:09:57.600Z,13.51
2023-03-19T08:12:26.207Z,13.78
2023-03-19T08:14:54.888Z,13.84
2023-03-19T08:17:23.254Z,13.90
2023-03-19T08:19:51.701Z,13.64
2023-03-19T08:22:20.372Z,13.74
2023-03-19T08:24:50.247Z,13.98
2023-03-19T08:27:18.714Z,13.89
2023-03-19T08:29:47.122Z,13.73
2023-03-19T08:32:16.198Z,13.87
2023-03-19T08:34:44.780Z,13.81
2023-03-19T08:37:13.564Z,14.01
2023-03-19T08:39:42.462Z,14.09
2023-03-19T08:42:12.948Z,14.08
2023-03-19T08:44:41.216Z,13.39
2023-03-19T08:47:12.177Z,13.56
2023-03-19T08:49:40.891Z,13.58
2023-03-19T08:52:09.888Z,14.02
2023-03-19T08:54:38.364Z,14.13
2023-03-19T08:57:07.145Z,13.97
2023-03-19T08:59:36.958Z,14.27
2023-03-19T09:02:05.939Z,13.83
2023-03-19T09:04:37.373Z,14.38
2023-03-19T09:07:06.236Z,14.37
2023-03-19T09:09:35.280Z,14.43
2023-03-19T09:12:03.772Z,14.45
2023-03-19T09:14:32.693Z,13.96
2023-03-19T09:17:03.809Z,14.27
2023-03-19T09:19:33.239Z,14.14
2023-03-19T09:22:02.010Z,14.41
2023-03-19T09:24:30.414Z,14.27
2023-03-19T09:26:58.781Z,14.69
2023-03-19T09:29:27.058Z,14.77
2023-03-19T09:31:55.736Z,14.76
2023-03-19T09:34:25.863Z,14.89
2023-03-19T09:36:54.214Z,15.00
2023-03-19T09:39:22.504Z,15.27
2023-03-19T09:42:04.497Z,14.79
2023-03-19T09:44:37.897Z,15.22
2023-03-19T09:47:25.859Z,15.55
2023-03-19T09:49:58.884Z,15.54
2023-03-19T09:52:45.408Z,15.49
2023-03-19T09:55:32.560Z,15.79
2023-03-19T09:58:02.236Z,15.95
2023-03-19T10:00:35.454Z,15.65
2023-03-19T10:03:12.846Z,15.60
2023-03-19T10:05:54.168Z,15.62
2023-03-19T10:08:46.255Z,15.66
2023-03-19T10:11:38.970Z,15.75
2023-03-19T10:14:28.526Z,15.70
2023-03-19T10:16:59.911Z,15.96
2023-03-19T10:19:40.940Z,15.89
2023-03-19T10:22:18.100Z,16.08
2023-03-19T10:24:49.538Z,15.17
2023-03-19T10:27:20.859Z,14.86
2023-03-19T10:29:50.302Z,15.45
2023-03-19T10:32:24.225Z,15.24
2023-03-19T10:34:54.355Z,15.48
2023-03-19T10:37:27.965Z,15.57
2023-03-19T10:39:59.362Z,16.00
2023-03-19T10:42:49.511Z,16.03
2023-03-19T10:45:27.876Z,15.81
2023-03-19T10:47:58.927Z,15.73
2023-03-19T10:50:33.908Z,15.74
2023-03-19T10:53:33.467Z,16.17
2023-03-19T10:56:05.581Z,15.86
2023-03-19T10:58:37.012Z,15.77
2023-03-19T11:01:09.649Z,15.57
2023-03-19T11:03:40.914Z,15.64
2023-03-19T11:06:20.296Z,15.54
2023-03-19T11:09:01.098Z,15.45
2023-03-19T11:11:36.970Z,16.07
2023-03-19T11:14:11.448Z,16.53
2023-03-19T11:16:52.594Z,16.03
2023-03-19T11:19:24.181Z,16.15
2023-03-19T11:22:09.294Z,16.46
2023-03-19T11:24:42.084Z,16.60
2023-03-19T11:27:12.714Z,16.73
2023-03-19T11:29:43.766Z,16.72
2023-03-19T11:32:54.006Z,15.90
2023-03-19T11:35:26.593Z,16.26
2023-03-19T11:37:57.604Z,16.57
2023-03-19T11:40:40.502Z,16.59
2023-03-19T11:43:38.419Z,16.91
2023-03-19T11:46:21.765Z,16.19
2023-03-19T11:49:16.984Z,16.66
2023-03-19T11:51:52.388Z,16.49
2023-03-19T11:54:31.677Z,16.55
2023-03-19T11:57:09.213Z,16.74
2023-03-19T12:00:08.174Z,16.78
2023-03-19T12:03:25.790Z,16.35
2023-03-19T12:06:00.746Z,16.91
2023-03-19T12:08:40.732Z,16.76
2023-03-19T12:11:22.672Z,16.03
2023-03-19T12:14:10.399Z,16.61
2023-03-19T12:16:57.706Z,17.06
2023-03-19T12:19:43.746Z,16.48
2023-03-19T12:22:28.521Z,16.99
2023-03-19T12:25:25.155Z,17.06
2023-03-19T12:27:59.329Z,17.17
2023-03-19T12:30:38.462Z,17.02
2023-03-19T12:33:23.326Z,16.82
2023-03-19T12:35:56.142Z,17.16
2023-03-19T12:38:43.267Z,16.86
2023-03-19T12:41:16.386Z,16.72
2023-03-19T12:43:53.608Z,16.10
2023-03-19T12:46:30.225Z,15.90
2023-03-19T12:49:04.176Z,16.24
2023-03-19T12:51:37.803Z,16.45
2023-03-19T12:54:21.731Z,16.10
2023-03-19T12:56:58.645Z,16.10
2023-03-19T12:59:35.635Z,16.71
2023-03-19T13:02:17.468Z,15.98
2023-03-19T13:04:54.551Z,16.80
2023-03-19T13:07:30.123Z,16.19
2023-03-19T13:10:08.127Z,16.20
2023-03-19T13:12:38.781Z,16.48
2023-03-19T13:15:14.218Z,16.28
2023-03-19T13:17:54.377Z,16.42
2023-03-19T13:20:36.397Z,15.69
2023-03-19T13:23:07.013Z,16.22
2023-03-19T13:25:44.326Z,16.46
2023-03-19T13:28:19.990Z,16.56
2023-03-19T13:31:07.780Z,16.39
2023-03-19T13:33:44.030Z,16.69
2023-03-19T13:36:18.047Z,16.29
2023-03-19T13:38:51.360Z,16.66
2023-03-19T13:41:52.249Z,16.30
2023-03-19T13:44:54.857Z,16.14
2023-03-19T13:47:42.421Z,16.81
2023-03-19T13:50:34.138Z,16.94
2023-03-19T13:53:34.710Z,16.98
2023-03-19T13:56:15.693Z,16.29
2023-03-19T13:58:56.475Z,17.13
2023-03-19T14:01:47.687Z,17.28
2023-03-19T14:04:22.015Z,17.19
2023-03-19T14:06:55.135Z,17.10
2023-03-19T14:09:40.106Z,17.13
2023-03-19T14:12:33.437Z,17.11
2023-03-19T14:15:18.975Z,16.96
2023-03-19T14:17:57.818Z,16.99
2023-03-19T14:20:37.113Z,17.07
2023-03-19T14:23:36.082Z,16.77
2023-03-19T14:26:14.323Z,17.05
2023-03-19T14:28:53.474Z,16.73
2023-03-19T14:31:32.965Z,16.86
2023-03-19T14:34:10.794Z,16.99
2023-03-19T14:36:45.372Z,16.59
2023-03-19T14:39:23.633Z,16.41
2023-03-19T14:41:59.915Z,16.59
2023-03-19T14:45:43.094Z,16.45
2023-03-19T14:48:25.357Z,16.38
2023-03-19T14:51:40.747Z,16.92
2023-03-19T14:54:29.619Z,16.71
2023-03-19T14:57:01.373Z,16.64
2023-03-19T14:59:40.081Z,16.24
2023-03-19T15:02:33.163Z,16.54
2023-03-19T15:05:03.691Z,17.06
2023-03-19T15:07:40.747Z,17.04
2023-03-19T15:10:19.654Z,17.04
2023-03-19T15:13:14.714Z,17.16
2023-03-19T15:16:19.376Z,16.77
2023-03-19T15:18:47.957Z,16.76
2023-03-19T15:21:18.451Z,16.57
2023-03-19T15:23:48.700Z,16.73
2023-03-19T15:26:32.306Z,16.72
2023-03-19T15:29:00.960Z,16.60
2023-03-19T15:31:54.003Z,16.65
2023-03-19T15:34:31.296Z,16.63
2023-03-19T15:37:05.759Z,16.71
2023-03-19T15:39:39.319Z,16.30
2023-03-19T15:42:09.932Z,16.45
2023-03-19T15:44:45.645Z,16.09
2023-03-19T15:47:19.098Z,16.20
2023-03-19T15:49:57.444Z,16.33
2023-03-19T15:52:27.274Z,16.79
2023-03-19T15:54:56.969Z,16.41
2023-03-19T15:57:30.601Z,16.70
2023-03-19T16:00:02.737Z,16.43
2023-03-19T16:02:33.880Z,15.98
2023-03-19T16:05:21.042Z,15.98
2023-03-19T16:07:58.290Z,16.25
2023-03-19T16:10:41.020Z,16.26
2023-03-19T16:13:32.066Z,16.78
2023-03-19T16:16:08.700Z,16.47
2023-03-19T16:18:50.690Z,16.71
2023-03-19T16:21:22.107Z,16.17
2023-03-19T16:23:59.272Z,16.11
2023-03-19T16:26:31.814Z,15.72
2023-03-19T16:29:09.592Z,15.80
2023-03-19T16:31:46.553Z,15.93
2023-03-19T16:34:43.116Z,15.73
2023-03-19T16:37:42.290Z,15.60
2023-03-19T16:40:44.783Z,15.63
2023-03-19T16:43:19.395Z,15.71
2023-03-19T16:46:04.556Z,15.22
2023-03-19T16:48:33.043Z,15.09
2023-03-19T16:51:01.548Z,15.59
2023-03-19T16:53:33.153Z,15.32
2023-03-19T16:56:03.427Z,14.70
2023-03-19T16:58:42.510Z,14.90
2023-03-19T17:01:19.473Z,14.87
2023-03-19T17:03:50.670Z,14.39
2023-03-19T17:06:20.356Z,15.02
2023-03-19T17:08:48.958Z,14.58
2023-03-19T17:11:25.544Z,14.74
2023-03-19T17:13:55.892Z,14.61
2023-03-19T17:16:27.475Z,14.96
2023-03-19T17:18:57.740Z,14.48
2023-03-19T17:21:28.778Z,14.54
2023-03-19T17:23:58.050Z,14.70
2023-03-19T17:26:29.422Z,14.56
2023-03-19T17:28:58.646Z,14.13
2023-03-19T17:31:32.993Z,14.52
2023-03-19T17:34:05.886Z,14.46
2023-03-19T17:36:34.843Z,14.43
2023-03-19T17:39:03.828Z,14.69
2023-03-19T17:41:35.694Z,14.55
2023-03-19T17:44:06.590Z,14.42
2023-03-19T17:46:40.827Z,14.25
2023-03-19T17:49:20.382Z,14.02
2023-03-19T17:51:49.150Z,14.56
2023-03-19T17:54:17.938Z,14.45
2023-03-19T17:56:47.425Z,14.47
2023-03-19T17:59:16.136Z,14.57
2023-03-19T18:01:47.215Z,14.58
2023-03-19T18:04:18.414Z,14.52
2023-03-19T18:06:50.807Z,14.29
2023-03-19T18:09:23.126Z,14.04
2023-03-19T18:11:51.898Z,14.38
2023-03-19T18:14:20.293Z,14.11
2023-03-19T18:16:50.230Z,14.42
2023-03-19T18:19:25.454Z,14.52
2023-03-19T18:21:53.889Z,14.16
2023-03-19T18:24:22.336Z,14.13
2023-03-19T18:26:50.756Z,13.68
2023-03-19T18:29:19.033Z,13.86
2023-03-19T18:31:51.479Z,14.02
2023-03-19T18:34:20.243Z,13.79
2023-03-19T18:36:48.859Z,13.70
2023-03-19T18:39:17.892Z,13.32
2023-03-19T18:41:46.439Z,13.86
2023-03-19T18:44:14.842Z,13.66
2023-03-19T18:46:44.055Z,13.54
2023-03-19T18:49:39.224Z,13.68
2023-03-19T18:52:07.912Z,13.88
2023-03-19T18:54:36.224Z,13.46
2023-03-19T18:57:05.822Z,13.54
2023-03-19T18:59:35.768Z,13.37
2023-03-19T19:02:21.224Z,14.01
2023-03-19T19:04:51.194Z,13.83
2023-03-19T19:07:19.719Z,13.37
2023-03-19T19:09:48.090Z,13.81
2023-03-19T19:12:20.801Z,13.01
2023-03-19T19:14:49.770Z,13.43
2023-03-19T19:17:21.325Z,13.26
2023-03-19T19:19:51.335Z,13.50
2023-03-19T19:22:20.616Z,13.32
2023-03-19T19:24:49.172Z,13.25
2023-03-19T19:27:20.585Z,13.02
2023-03-19T19:29:49.856Z,13.04
2023-03-19T19:32:25.802Z,13.34
2023-03-19T19:34:56.475Z,13.50
2023-03-19T19:37:25.542Z,13.56
2023-03-19T19:39:54.271Z,13.49
2023-03-19T19:42:24.751Z,13.41
2023-03-19T19:44:56.075Z,13.11
2023-03-19T19:47:25.202Z,13.04
2023-03-19T19:49:56.455Z,13.45
2023-03-19T19:52:24.829Z,13.06
2023-03-19T19:54:53.182Z,13.01
2023-03-19T19:57:25.004Z,13.29
2023-03-19T19:59:55.451Z,12.92
2023-03-19T20:02:26.141Z,13.27
2023-03-19T20:04:56.792Z,12.81
2023-03-19T20:07:25.268Z,13.01
2023-03-19T20:09:53.560Z,13.06
2023-03-19T20:12:23.788Z,12.89
2023-03-19T20:14:53.042Z,13.18
2023-03-19T20:17:22.178Z,12.58
2023-03-19T20:19:50.946Z,12.93
2023-03-19T20:22:20.738Z,12.73
2023-03-19T20:24:51.242Z,13.29
2023-03-19T20:27:24.188Z,12.65
2023-03-19T20:29:54.300Z,12.82
2023-03-19T20:32:29.867Z,12.93
2023-03-19T20:34:59.356Z,13.09
2023-03-19T20:37:30.009Z,13.23
2023-03-19T20:39:59.501Z,13.42
2023-03-19T20:42:30.285Z,12.72
2023-03-19T20:45:01.359Z,12.78
2023-03-19T20:47:32.997Z,13.05
2023-03-19T20:50:02.074Z,13.02
2023-03-19T20:52:31.851Z,13.27
2023-03-19T20:55:00.931Z,13.26
2023-03-19T20:57:30.760Z,13.20
2023-03-19T21:00:13.032Z,12.97
2023-03-19T21:02:41.526Z,13.08
2023-03-19T21:05:13.379Z,13.19
2023-03-19T21:07:46.678Z,12.87
2023-03-19T21:10:29.994Z,13.10
2023-03-19T21:12:58.986Z,13.05
2023-03-19T21:15:28.656Z,13.35
2023-03-19T21:17:57.664Z,13.50
2023-03-19T21:20:28.956Z,13.35
2023-03-19T21:23:08.638Z,13.46
2023-03-19T21:25:38.155Z,13.04
2023-03-19T21:28:13.116Z,13.11
2023-03-19T21:30:45.041Z,12.75
2023-03-19T21:33:24.404Z,13.17
2023-03-19T21:35:53.398Z,12.83
2023-03-19T21:38:23.447Z,13.21
2023-03-19T21:40:55.166Z,13.25
2023-03-19T21:43:30.176Z,13.26
2023-03-19T21:45:58.940Z,13.44
2023-03-19T21:48:32.203Z,13.51
2023-03-19T21:51:02.415Z,13.12
2023-03-19T21:53:32.257Z,13.60
2023-03-19T21:56:02.361Z,13.27
2023-03-19T21:58:33.575Z,13.29
2023-03-19T22:01:09.181Z,13.35
2023-03-19T22:03:37.742Z,13.42
2023-03-19T22:06:07.553Z,13.21
2023-03-19T22:08:37.396Z,12.98
2023-03-19T22:11:17.253Z,13.25
2023-03-19T22:13:46.046Z,12.69
2023-03-19T22:16:20.717Z,13.27
2023-03-19T22:18:52.205Z,12.84
2023-03-19T22:21:23.574Z,13.21
2023-03-19T22:23:53.316Z,13.27
2023-03-19T22:26:32.173Z,12.98
2023-03-19T22:29:02.959Z,13.16
2023-03-19T22:31:32.530Z,13.12
2023-03-19T22:34:01.122Z,13.33
2023-03-19T22:36:29.786Z,13.28
2023-03-19T22:38:59.585Z,13.49
2023-03-19T22:41:34.202Z,13.22
2023-03-19T22:44:06.298Z,13.36
2023-03-19T22:46:35.182Z,13.12
2023-03-19T22:49:09.084Z,13.12
2023-03-19T22:51:37.667Z,13.11
2023-03-19T22:54:08.164Z,13.04
2023-03-19T22:56:36.445Z,12.89
2023-03-19T22:59:05.209Z,12.49
2023-03-19T23:01:41.531Z,13.12
2023-03-19T23:04:21.227Z,13.27
2023-03-19T23:06:51.918Z,12.97
2023-03-19T23:09:25.278Z,13.27
2023-03-19T23:11:54.893Z,13.33
2023-03-19T23:14:30.265Z,13.35
2023-03-19T23:17:03.093Z,13.17
2023-03-19T23:19:34.846Z,13.35
2023-03-19T23:22:05.656Z,13.34
2023-03-19T23:24:35.600Z,13.15
2023-03-19T23:27:04.931Z,13.14
2023-03-19T23:29:37.598Z,13.16
2023-03-19T23:32:06.502Z,12.99
2023-03-19T23:34:42.323Z,12.85
2023-03-19T23:37:14.322Z,12.91
2023-03-19T23:39:43.960Z,12.75
2023-03-19T23:42:20.586Z,12.81
2023-03-19T23:44:48.853Z,12.69
2023-03-19T23:47:17.463Z,12.91
2023-03-19T23:49:46.090Z,12.89
2023-03-19T23:52:15.550Z,12.70
2023-03-19T23:54:45.155Z,12.81
2023-03-19T23:57:16.697Z,12.21
2023-03-19T23:59:49.117Z,12.76
